Lowlands Sky — 3FJW9 — position and weather

sailwx.info

Track history (hours):
 
Tides and Currents Weather Stations Pressure Air Temp Water Temp Dewpoint Dewpoint Depression Visibility Wind Speed Wind Dir Waves Ship Positions

Lowlands Sky

Last reported at 2014-Nov-21 01:31 UTC. Time now 2014-Nov-21 02:32 UTC.
Position N 27°54' W 082°25'.

Length 177 m; draft 9.4 m.

Type: Cargo ship. MMSI: 370830000.

Date/timePositionNaut miles runAvg speedWind from/ knotsBaromVisibWave heightAir tempDewpointWater temp
2014-Nov-21 01:31N 27°54' W 082°25'0 0.0
2014-Nov-21 00:31N 27°54' W 082°25'0 0.0
2014-Nov-20 23:31N 27°54' W 082°25'0 0.0
2014-Nov-20 22:31N 27°54' W 082°25'0 0.0
2014-Nov-20 21:31N 27°54' W 082°25'0 0.0
2014-Nov-20 20:31N 27°54' W 082°25'0 0.0
2014-Nov-20 19:31N 27°54' W 082°25'0 0.0
2014-Nov-20 18:28N 27°54' W 082°25'0 0.0
2014-Nov-20 17:31N 27°54' W 082°25'0 0.0
2014-Nov-20 16:31N 27°54' W 082°25'0 0.0
2014-Nov-20 15:31N 27°54' W 082°25'0 0.0
2014-Nov-20 14:31N 27°54' W 082°25'0 0.0
2014-Nov-20 13:31N 27°54' W 082°25'0 0.0
2014-Nov-20 12:31N 27°54' W 082°25'0 0.0
2014-Nov-20 11:31N 27°54' W 082°25'0 0.0
2014-Nov-20 10:31N 27°54' W 082°25'0 0.0
2014-Nov-20 09:31N 27°54' W 082°25'0 0.0
2014-Nov-20 08:31N 27°54' W 082°25'0 0.0
2014-Nov-20 07:31N 27°54' W 082°25'0 0.0
2014-Nov-20 06:31N 27°54' W 082°25'0 0.0
2014-Nov-20 05:31N 27°54' W 082°25'0 0.0
2014-Nov-20 04:31N 27°54' W 082°25'0 0.0
2014-Nov-20 03:25N 27°54' W 082°25'0 0.0
2014-Nov-20 02:31N 27°54' W 082°25'0 0.0
2014-Nov-20 01:31N 27°54' W 082°25'0 0.0
2014-Nov-20 00:31N 27°54' W 082°25'0 0.0
2014-Nov-19 23:31N 27°54' W 082°25'0 0.0
2014-Nov-19 22:31N 27°54' W 082°25'0 0.0
2014-Nov-19 21:31N 27°54' W 082°25'0 0.0
2014-Nov-19 20:31N 27°54' W 082°25'0 0.0
2014-Nov-19 19:31N 27°54' W 082°25'0 0.0
2014-Nov-19 18:31N 27°54' W 082°25'0 0.0
2014-Nov-19 17:31N 27°54' W 082°25'0 0.0
2014-Nov-19 16:31N 27°54' W 082°25'0 0.0
2014-Nov-19 15:31N 27°54' W 082°25'0 0.0
2014-Nov-19 14:31N 27°54' W 082°25'0 0.0
2014-Nov-19 13:31N 27°54' W 082°25'0 0.0
2014-Nov-19 12:31N 27°54' W 082°25'0 0.0
2014-Nov-19 11:31N 27°54' W 082°25'0 0.0
2014-Nov-19 10:31N 27°54' W 082°25'0 0.0
2014-Nov-19 09:31N 27°54' W 082°25'0 0.0
2014-Nov-19 08:31N 27°54' W 082°25'0 0.0
2014-Nov-19 07:31N 27°54' W 082°25'0 0.0
2014-Nov-19 06:31N 27°54' W 082°25'0 0.0
2014-Nov-19 05:31N 27°54' W 082°25'0 0.0
2014-Nov-19 04:31N 27°54' W 082°25'0 0.0
2014-Nov-19 03:31N 27°54' W 082°25'0 0.0
2014-Nov-19 02:31N 27°54' W 082°25'0 0.0
2014-Nov-19 01:31N 27°54' W 082°25'0 0.0
2014-Nov-19 00:31N 27°54' W 082°25'0 0.0
2014-Nov-18 23:31N 27°54' W 082°25'0 0.0
2014-Nov-18 22:31N 27°54' W 082°25'0 0.0
2014-Nov-18 21:31N 27°54' W 082°25'0 0.0
2014-Nov-18 20:31N 27°54' W 082°25'0 0.0
2014-Nov-18 19:31N 27°54' W 082°25'0 0.0
2014-Nov-18 18:31N 27°54' W 082°25'0 0.0
2014-Nov-18 17:28N 27°54' W 082°25'0 0.0
2014-Nov-18 16:28N 27°54' W 082°25'0 0.0
2014-Nov-18 15:31N 27°54' W 082°25'0 0.0
2014-Nov-18 14:31N 27°54' W 082°25'0 0.0
2014-Nov-18 13:31N 27°54' W 082°25'0 0.0
2014-Nov-18 12:31N 27°54' W 082°25'0 0.0
2014-Nov-18 11:31N 27°54' W 082°25'0 0.0
2014-Nov-18 10:31N 27°54' W 082°25'0 0.0
2014-Nov-18 09:31N 27°54' W 082°25'0 0.0
2014-Nov-18 08:31N 27°54' W 082°25'0 0.0
2014-Nov-18 07:28N 27°54' W 082°25'0 0.0
2014-Nov-18 06:28N 27°54' W 082°25'0 0.0
2014-Nov-18 05:31N 27°54' W 082°25'0 0.0
2014-Nov-18 04:31N 27°54' W 082°25'0 0.0
2014-Nov-18 03:31N 27°54' W 082°25'1 0.6
2014-Nov-18 02:33N 27°54' W 082°26'5 4.7
2014-Nov-18 01:33N 27°50' W 082°27'8 8.5
2014-Nov-18 00:33N 27°43' W 082°33'1111.3
2014-Nov-17 23:33N 27°36' W 082°43'1111.0
2014-Nov-17 22:34N 27°36' W 082°55'6 6.3
2014-Nov-17 21:33N 27°39' W 083°02'  
Track history (hours):
 
Tides and Currents Weather Stations Pressure Air Temp Water Temp Dewpoint Dewpoint Depression Visibility Wind Speed Wind Dir Waves Ship Positions

Lowlands Sky

Last reported at 2014-Nov-21 01:31 UTC. Time now 2014-Nov-21 02:32 UTC.
Position N 27°54' W 082°25'.

Length 177 m; draft 9.4 m.

Type: Cargo ship. MMSI: 370830000.

Date/timePositionNaut miles runAvg speedWind from/ knotsBaromVisibWave heightAir tempDewpointWater temp
2014-Nov-21 01:31N 27°54' W 082°25'0 0.0
2014-Nov-21 00:31N 27°54' W 082°25'0 0.0
2014-Nov-20 23:31N 27°54' W 082°25'0 0.0
2014-Nov-20 22:31N 27°54' W 082°25'0 0.0
2014-Nov-20 21:31N 27°54' W 082°25'0 0.0
2014-Nov-20 20:31N 27°54' W 082°25'0 0.0
2014-Nov-20 19:31N 27°54' W 082°25'0 0.0
2014-Nov-20 18:28N 27°54' W 082°25'0 0.0
2014-Nov-20 17:31N 27°54' W 082°25'0 0.0
2014-Nov-20 16:31N 27°54' W 082°25'0 0.0
2014-Nov-20 15:31N 27°54' W 082°25'0 0.0
2014-Nov-20 14:31N 27°54' W 082°25'0 0.0
2014-Nov-20 13:31N 27°54' W 082°25'0 0.0
2014-Nov-20 12:31N 27°54' W 082°25'0 0.0
2014-Nov-20 11:31N 27°54' W 082°25'0 0.0
2014-Nov-20 10:31N 27°54' W 082°25'0 0.0
2014-Nov-20 09:31N 27°54' W 082°25'0 0.0
2014-Nov-20 08:31N 27°54' W 082°25'0 0.0
2014-Nov-20 07:31N 27°54' W 082°25'0 0.0
2014-Nov-20 06:31N 27°54' W 082°25'0 0.0
2014-Nov-20 05:31N 27°54' W 082°25'0 0.0
2014-Nov-20 04:31N 27°54' W 082°25'0 0.0
2014-Nov-20 03:25N 27°54' W 082°25'0 0.0
2014-Nov-20 02:31N 27°54' W 082°25'0 0.0
2014-Nov-20 01:31N 27°54' W 082°25'0 0.0
2014-Nov-20 00:31N 27°54' W 082°25'0 0.0
2014-Nov-19 23:31N 27°54' W 082°25'0 0.0
2014-Nov-19 22:31N 27°54' W 082°25'0 0.0
2014-Nov-19 21:31N 27°54' W 082°25'0 0.0
2014-Nov-19 20:31N 27°54' W 082°25'0 0.0
2014-Nov-19 19:31N 27°54' W 082°25'0 0.0
2014-Nov-19 18:31N 27°54' W 082°25'0 0.0
2014-Nov-19 17:31N 27°54' W 082°25'0 0.0
2014-Nov-19 16:31N 27°54' W 082°25'0 0.0
2014-Nov-19 15:31N 27°54' W 082°25'0 0.0
2014-Nov-19 14:31N 27°54' W 082°25'0 0.0
2014-Nov-19 13:31N 27°54' W 082°25'0 0.0
2014-Nov-19 12:31N 27°54' W 082°25'0 0.0
2014-Nov-19 11:31N 27°54' W 082°25'0 0.0
2014-Nov-19 10:31N 27°54' W 082°25'0 0.0
2014-Nov-19 09:31N 27°54' W 082°25'0 0.0
2014-Nov-19 08:31N 27°54' W 082°25'0 0.0
2014-Nov-19 07:31N 27°54' W 082°25'0 0.0
2014-Nov-19 06:31N 27°54' W 082°25'0 0.0
2014-Nov-19 05:31N 27°54' W 082°25'0 0.0
2014-Nov-19 04:31N 27°54' W 082°25'0 0.0
2014-Nov-19 03:31N 27°54' W 082°25'0 0.0
2014-Nov-19 02:31N 27°54' W 082°25'0 0.0
2014-Nov-19 01:31N 27°54' W 082°25'0 0.0
2014-Nov-19 00:31N 27°54' W 082°25'0 0.0
2014-Nov-18 23:31N 27°54' W 082°25'0 0.0
2014-Nov-18 22:31N 27°54' W 082°25'0 0.0
2014-Nov-18 21:31N 27°54' W 082°25'0 0.0
2014-Nov-18 20:31N 27°54' W 082°25'0 0.0
2014-Nov-18 19:31N 27°54' W 082°25'0 0.0
2014-Nov-18 18:31N 27°54' W 082°25'0 0.0
2014-Nov-18 17:28N 27°54' W 082°25'0 0.0
2014-Nov-18 16:28N 27°54' W 082°25'0 0.0
2014-Nov-18 15:31N 27°54' W 082°25'0 0.0
2014-Nov-18 14:31N 27°54' W 082°25'0 0.0
2014-Nov-18 13:31N 27°54' W 082°25'0 0.0
2014-Nov-18 12:31N 27°54' W 082°25'0 0.0
2014-Nov-18 11:31N 27°54' W 082°25'0 0.0
2014-Nov-18 10:31N 27°54' W 082°25'0 0.0
2014-Nov-18 09:31N 27°54' W 082°25'0 0.0
2014-Nov-18 08:31N 27°54' W 082°25'0 0.0
2014-Nov-18 07:28N 27°54' W 082°25'0 0.0
2014-Nov-18 06:28N 27°54' W 082°25'0 0.0
2014-Nov-18 05:31N 27°54' W 082°25'0 0.0
2014-Nov-18 04:31N 27°54' W 082°25'0 0.0
2014-Nov-18 03:31N 27°54' W 082°25'1 0.6
2014-Nov-18 02:33N 27°54' W 082°26'5 4.7
2014-Nov-18 01:33N 27°50' W 082°27'8 8.5
2014-Nov-18 00:33N 27°43' W 082°33'1111.3
2014-Nov-17 23:33N 27°36' W 082°43'1111.0
2014-Nov-17 22:34N 27°36' W 082°55'6 6.3
2014-Nov-17 21:33N 27°39' W 083°02'  

Dump ship's entire track history